createdAt,value
2023-05-24T00:00:36.875Z,24.48
2023-05-24T00:03:07.124Z,21.65
2023-05-24T00:05:37.805Z,18.70
2023-05-24T00:08:06.015Z,19.08
2023-05-24T00:10:34.147Z,20.48
2023-05-24T00:13:02.252Z,16.25
2023-05-24T00:15:30.336Z,19.75
2023-05-24T00:17:58.459Z,17.15
2023-05-24T00:20:28.021Z,16.67
2023-05-24T00:22:56.141Z,21.05
2023-05-24T00:25:24.332Z,26.98
2023-05-24T00:27:52.420Z,15.63
2023-05-24T00:30:20.888Z,18.92
2023-05-24T00:32:49.012Z,22.83
2023-05-24T00:35:17.169Z,21.48
2023-05-24T00:37:46.713Z,19.92
2023-05-24T00:40:15.465Z,15.90
2023-05-24T00:42:43.570Z,14.95
2023-05-24T00:45:12.232Z,23.70
2023-05-24T00:47:40.370Z,15.45
2023-05-24T00:50:09.887Z,15.10
2023-05-24T00:52:38.309Z,14.43
2023-05-24T00:55:09.217Z,16.25
2023-05-24T00:57:37.870Z,19.63
2023-05-24T01:00:08.031Z,15.85
2023-05-24T01:02:36.360Z,17.40
2023-05-24T01:05:04.678Z,21.35
2023-05-24T01:07:40.567Z,15.63
2023-05-24T01:10:16.762Z,19.38
2023-05-24T01:12:54.846Z,19.75
2023-05-24T01:15:25.804Z,17.25
2023-05-24T01:18:02.905Z,17.70
2023-05-24T01:20:34.259Z,19.98
2023-05-24T01:23:08.688Z,21.38
2023-05-24T01:26:10.305Z,15.65
2023-05-24T01:28:40.945Z,13.35
2023-05-24T01:31:09.540Z,14.70
2023-05-24T01:33:42.574Z,15.63
2023-05-24T01:38:39.026Z,15.85
2023-05-24T01:41:13.568Z,15.73
2023-05-24T01:43:48.240Z,10.95
2023-05-24T01:46:34.326Z,17.48
2023-05-24T01:49:12.326Z,15.55
2023-05-24T01:51:46.213Z,17.15
2023-05-24T01:54:15.273Z,11.65
2023-05-24T01:56:45.849Z,13.48
2023-05-24T01:59:15.424Z,18.52
2023-05-24T02:01:43.543Z,13.77
2023-05-24T02:04:11.710Z,21.40
2023-05-24T02:06:39.842Z,12.10
2023-05-24T02:09:07.966Z,17.00
2023-05-24T02:11:36.290Z,26.27
2023-05-24T02:14:04.493Z,16.05
2023-05-24T02:16:34.014Z,24.02
2023-05-24T02:19:02.135Z,13.63
2023-05-24T02:21:30.354Z,9.20
2023-05-24T02:23:58.504Z,12.13
2023-05-24T02:26:26.586Z,8.95
2023-05-24T02:28:54.691Z,17.52
2023-05-24T02:31:22.905Z,18.33
2023-05-24T02:33:52.523Z,13.57
2023-05-24T02:36:20.600Z,14.23
2023-05-24T02:38:48.692Z,14.90
2023-05-24T02:41:18.277Z,14.50
2023-05-24T02:43:46.736Z,17.95
2023-05-24T02:46:15.035Z,11.73
2023-05-24T02:48:43.210Z,10.15
2023-05-24T02:51:12.676Z,18.38
2023-05-24T02:53:43.507Z,11.73
2023-05-24T02:56:13.745Z,10.43
2023-05-24T02:58:41.874Z,16.95
2023-05-24T03:01:09.975Z,10.65
2023-05-24T03:03:38.278Z,19.17
2023-05-24T03:06:07.792Z,16.63
2023-05-24T03:08:38.037Z,13.25
2023-05-24T03:11:06.577Z,12.93
2023-05-24T03:13:34.644Z,12.50
2023-05-24T03:16:02.835Z,14.38
2023-05-24T03:18:30.990Z,11.57
2023-05-24T03:20:59.179Z,13.82
2023-05-24T03:23:27.238Z,21.08
2023-05-24T03:25:56.832Z,15.55
2023-05-24T03:28:24.888Z,14.57
2023-05-24T03:30:53.127Z,20.35
2023-05-24T03:33:21.263Z,19.75
2023-05-24T03:35:49.342Z,19.67
2023-05-24T03:38:17.435Z,16.90
2023-05-24T03:40:45.533Z,10.52
2023-05-24T03:43:14.989Z,12.77
2023-05-24T03:45:43.287Z,20.38
2023-05-24T03:48:11.508Z,14.70
2023-05-24T03:50:39.719Z,16.08
2023-05-24T03:53:07.846Z,18.80
2023-05-24T03:55:36.082Z,16.65
2023-05-24T03:58:04.304Z,15.40
2023-05-24T04:00:33.815Z,13.98
2023-05-24T04:03:02.535Z,16.00
2023-05-24T04:05:30.697Z,14.15
2023-05-24T04:07:58.814Z,16.80
2023-05-24T04:10:26.912Z,19.38
2023-05-24T04:12:57.096Z,19.60
2023-05-24T04:15:25.334Z,14.82
2023-05-24T04:17:55.785Z,21.70
2023-05-24T04:20:38.898Z,24.65
2023-05-24T04:23:07.131Z,14.80
2023-05-24T04:25:35.281Z,24.63
2023-05-24T04:28:03.966Z,12.93
2023-05-24T04:30:32.120Z,21.33
2023-05-24T04:33:02.019Z,21.05
2023-05-24T04:35:30.252Z,17.48
2023-05-24T04:37:59.809Z,14.73
2023-05-24T04:40:27.972Z,14.65
2023-05-24T04:42:56.185Z,17.30
2023-05-24T04:45:25.008Z,28.30
2023-05-24T04:47:53.130Z,20.83
2023-05-24T04:50:22.653Z,35.45
2023-05-24T04:52:50.941Z,22.02
2023-05-24T04:55:19.055Z,25.48
2023-05-24T04:57:47.132Z,19.50
2023-05-24T05:00:16.057Z,19.42
2023-05-24T05:02:44.220Z,19.38
2023-05-24T05:05:12.736Z,11.85
2023-05-24T05:07:42.151Z,17.10
2023-05-24T05:10:10.771Z,18.92
2023-05-24T05:12:40.076Z,15.55
2023-05-24T05:15:09.830Z,17.15
2023-05-24T05:17:38.109Z,15.43
2023-05-24T05:20:07.450Z,18.20
2023-05-24T05:22:35.882Z,18.65
2023-05-24T05:25:05.780Z,15.07
2023-05-24T05:27:33.902Z,17.75
2023-05-24T05:30:02.118Z,25.13
2023-05-24T05:32:30.328Z,19.05
2023-05-24T05:34:58.473Z,27.55
2023-05-24T05:37:26.564Z,27.17
2023-05-24T05:39:54.626Z,12.65
2023-05-24T05:42:24.092Z,19.50
2023-05-24T05:44:52.717Z,17.83
2023-05-24T05:47:21.086Z,17.80
2023-05-24T05:49:49.175Z,18.23
2023-05-24T05:52:17.273Z,18.45
2023-05-24T05:54:45.396Z,21.15
2023-05-24T05:57:13.507Z,16.65
2023-05-24T05:59:43.007Z,24.83
2023-05-24T06:02:12.901Z,18.35
2023-05-24T06:04:41.222Z,27.20
2023-05-24T06:07:09.364Z,20.00
2023-05-24T06:09:37.504Z,22.83
2023-05-24T06:12:06.432Z,38.38
2023-05-24T06:14:34.609Z,28.13
2023-05-24T06:17:04.139Z,28.00
2023-05-24T06:19:32.810Z,25.20
2023-05-24T06:22:01.384Z,32.38
2023-05-24T06:24:29.719Z,35.38
2023-05-24T06:26:57.999Z,33.42
2023-05-24T06:29:26.171Z,42.80
2023-05-24T06:31:54.269Z,28.75
2023-05-24T06:34:23.877Z,41.53
2023-05-24T06:36:53.027Z,32.92
2023-05-24T06:39:21.274Z,35.63
2023-05-24T11:56:43.731Z,23.10
2023-05-24T11:59:16.516Z,20.35
2023-05-24T12:01:45.642Z,20.55
2023-05-24T12:04:13.962Z,22.63
2023-05-24T12:06:43.229Z,26.80
2023-05-24T12:09:13.569Z,23.30
2023-05-24T12:11:44.513Z,27.92
2023-05-24T12:14:15.877Z,26.55
2023-05-24T12:16:44.474Z,18.23
2023-05-24T12:19:31.730Z,20.80
2023-05-24T12:22:02.250Z,20.13
2023-05-24T12:24:32.764Z,23.27
2023-05-24T12:27:06.657Z,17.58
2023-05-24T12:29:36.600Z,25.35
2023-05-24T12:32:05.869Z,22.80
2023-05-24T12:34:34.183Z,28.50
2023-05-24T12:37:02.422Z,19.40
2023-05-24T12:39:34.153Z,25.00
2023-05-24T12:42:04.488Z,27.42
2023-05-24T12:44:34.790Z,20.50
2023-05-24T12:47:04.117Z,25.58
2023-05-24T12:49:32.810Z,26.05
2023-05-24T12:52:01.909Z,19.27
2023-05-24T12:54:30.529Z,22.45
2023-05-24T12:57:00.057Z,24.10
2023-05-24T12:59:29.993Z,24.75
2023-05-24T13:01:58.444Z,18.60
2023-05-24T13:04:27.728Z,24.60
2023-05-24T13:06:56.338Z,17.65
2023-05-24T13:09:26.019Z,20.90
2023-05-24T13:11:55.194Z,24.85
2023-05-24T13:14:23.359Z,15.02
2023-05-24T13:16:53.008Z,23.50
2023-05-24T13:19:21.688Z,21.17
2023-05-24T13:21:49.799Z,21.52
2023-05-24T13:24:18.083Z,19.08
2023-05-24T13:26:47.007Z,21.45
2023-05-24T13:31:46.448Z,29.05
2023-05-24T13:34:16.151Z,31.10
2023-05-24T13:36:44.311Z,22.33
2023-05-24T13:39:16.237Z,19.17
2023-05-24T13:41:45.822Z,20.00
2023-05-24T13:44:14.401Z,20.23
2023-05-24T13:46:43.325Z,14.65
2023-05-24T13:49:12.420Z,14.98
2023-05-24T13:51:42.225Z,19.73
2023-05-24T13:54:10.416Z,13.07
2023-05-24T13:56:39.822Z,18.45
2023-05-24T13:59:08.586Z,19.30
2023-05-24T14:01:38.158Z,22.33
2023-05-24T14:04:07.052Z,20.27
2023-05-24T14:06:37.524Z,25.63
2023-05-24T14:09:08.311Z,19.67
2023-05-24T14:11:36.645Z,17.83
2023-05-24T14:16:37.004Z,25.30
2023-05-24T14:19:05.673Z,18.33
2023-05-24T14:21:33.912Z,19.52
2023-05-24T14:24:02.070Z,31.38
2023-05-24T14:26:31.527Z,19.77
2023-05-24T14:28:59.669Z,19.95
2023-05-24T14:31:27.785Z,25.42
2023-05-24T14:33:56.395Z,23.40
2023-05-24T14:36:24.576Z,21.58
2023-05-24T14:38:52.714Z,21.70
2023-05-24T14:41:20.798Z,20.48
2023-05-24T14:43:51.156Z,19.20
2023-05-24T14:46:19.450Z,24.13
2023-05-24T14:48:47.606Z,27.20
2023-05-24T14:51:15.707Z,21.08
2023-05-24T14:53:43.807Z,22.02
2023-05-24T14:56:13.969Z,23.10
2023-05-24T14:58:42.188Z,23.95
2023-05-24T15:01:11.714Z,25.10
2023-05-24T15:03:39.943Z,15.90
2023-05-24T15:06:08.442Z,25.40
2023-05-24T15:08:36.566Z,20.73
2023-05-24T15:11:05.185Z,18.58
2023-05-24T15:13:33.648Z,28.55
2023-05-24T15:16:01.790Z,26.80
2023-05-24T15:18:32.321Z,19.25
2023-05-24T15:21:00.483Z,18.58
2023-05-24T15:23:28.732Z,25.85
2023-05-24T15:25:56.867Z,21.50
2023-05-24T15:28:26.367Z,23.67
2023-05-24T15:30:55.138Z,25.83
2023-05-24T15:33:23.399Z,28.08
2023-05-24T15:35:52.894Z,27.27
2023-05-24T15:38:20.962Z,26.65
2023-05-24T15:40:49.084Z,26.13
2023-05-24T15:43:20.116Z,23.77
2023-05-24T15:45:48.664Z,24.95
2023-05-24T15:48:16.838Z,19.08
2023-05-24T15:51:06.533Z,26.33
2023-05-24T15:53:34.575Z,26.00
2023-05-24T15:56:02.654Z,21.17
2023-05-24T15:58:31.011Z,26.80
2023-05-24T16:00:59.134Z,30.92
2023-05-24T16:03:27.416Z,26.42
2023-05-24T16:05:55.775Z,22.17
2023-05-24T16:08:27.792Z,26.77
2023-05-24T16:10:57.983Z,32.22
2023-05-24T16:13:26.383Z,27.35
2023-05-24T16:15:54.670Z,28.90
2023-05-24T16:18:23.671Z,35.25
2023-05-24T16:20:51.991Z,18.27
2023-05-24T16:23:23.122Z,29.80
2023-05-24T16:25:51.641Z,25.77
2023-05-24T16:28:24.283Z,29.58
2023-05-24T16:30:55.896Z,26.17
2023-05-24T16:33:25.440Z,35.33
2023-05-24T16:35:56.513Z,26.88
2023-05-24T16:38:25.545Z,32.58
2023-05-24T16:40:53.874Z,25.38
2023-05-24T16:43:23.363Z,28.02
2023-05-24T16:45:51.939Z,34.95
2023-05-24T16:48:21.774Z,30.52
2023-05-24T16:50:50.434Z,25.30
2023-05-24T16:53:20.389Z,24.77
2023-05-24T16:55:53.609Z,23.42
2023-05-24T16:58:23.676Z,27.63
2023-05-24T17:00:54.262Z,30.17
2023-05-24T17:03:27.726Z,22.08
2023-05-24T17:05:56.862Z,28.75
2023-05-24T17:08:27.496Z,26.05
2023-05-24T17:10:57.170Z,31.02
2023-05-24T17:13:27.738Z,31.10
2023-05-24T17:15:56.004Z,24.38
2023-05-24T17:18:29.019Z,35.60
2023-05-24T17:20:58.237Z,31.67
2023-05-24T17:23:26.979Z,26.77
2023-05-24T17:25:55.560Z,26.65
2023-05-24T17:28:27.766Z,29.02
2023-05-24T17:30:59.263Z,32.10
2023-05-24T17:33:28.181Z,27.38
2023-05-24T17:35:57.141Z,27.98
2023-05-24T17:38:25.806Z,29.55
2023-05-24T17:40:57.065Z,31.63
2023-05-24T17:43:28.906Z,34.85
2023-05-24T17:46:03.633Z,26.58
2023-05-24T17:48:32.568Z,22.52
2023-05-24T17:51:01.150Z,30.17
2023-05-24T17:53:31.814Z,33.78
2023-05-24T17:56:00.662Z,35.08
2023-05-24T17:58:30.707Z,27.48
2023-05-24T18:01:00.520Z,29.75
2023-05-24T18:03:28.765Z,33.67
2023-05-24T18:05:57.240Z,33.10
2023-05-24T18:08:26.063Z,25.67
2023-05-24T18:10:54.272Z,31.40
2023-05-24T18:13:22.524Z,32.75
2023-05-24T18:15:51.851Z,28.17
2023-05-24T18:18:21.595Z,30.20
2023-05-24T18:20:49.700Z,31.95
2023-05-24T18:23:17.964Z,36.10
2023-05-24T18:25:46.199Z,28.02
2023-05-24T18:28:14.471Z,34.28
2023-05-24T18:30:43.723Z,31.55
2023-05-24T18:33:12.101Z,31.85
2023-05-24T18:35:41.850Z,36.80
2023-05-24T18:38:10.083Z,35.17
2023-05-24T18:40:38.191Z,41.83
2023-05-24T18:43:06.361Z,30.38
2023-05-24T18:45:34.462Z,21.65
2023-05-24T18:48:02.694Z,34.58
2023-05-24T18:50:30.839Z,33.97
2023-05-24T18:53:00.323Z,32.80
2023-05-24T18:55:28.834Z,31.13
2023-05-24T18:57:56.955Z,35.88
2023-05-24T19:00:25.188Z,30.65
2023-05-24T19:02:55.435Z,26.83
2023-05-24T19:05:23.596Z,29.13
2023-05-24T19:07:51.729Z,26.30
2023-05-24T19:10:21.223Z,33.05
2023-05-24T19:12:49.487Z,30.27
2023-05-24T19:15:18.066Z,38.75
2023-05-24T19:17:46.211Z,28.90
2023-05-24T19:20:14.396Z,30.75
2023-05-24T19:22:42.557Z,23.02
2023-05-24T19:25:11.217Z,33.42
2023-05-24T19:27:54.780Z,29.95
2023-05-24T19:30:27.388Z,31.55
2023-05-24T19:32:55.795Z,31.63
2023-05-24T19:35:24.075Z,29.23
2023-05-24T19:37:53.746Z,26.15
2023-05-24T19:40:22.378Z,24.48
2023-05-24T19:42:52.350Z,32.35
2023-05-24T19:45:20.535Z,25.35
2023-05-24T19:47:48.664Z,90.88
2023-05-24T19:50:17.010Z,55.83
2023-05-24T19:52:45.211Z,28.50
2023-05-24T19:55:13.418Z,32.38
2023-05-24T19:57:41.872Z,25.15
2023-05-24T20:00:13.932Z,34.95
2023-05-24T20:02:42.046Z,32.97
2023-05-24T20:05:11.254Z,28.17
2023-05-24T20:07:39.388Z,32.30
2023-05-24T20:10:08.840Z,37.15
2023-05-24T20:12:37.029Z,37.13
2023-05-24T20:15:08.310Z,31.13
2023-05-24T20:17:37.808Z,33.80
2023-05-24T20:20:07.179Z,36.30
2023-05-24T20:22:35.356Z,31.48
2023-05-24T20:25:03.517Z,27.75
2023-05-24T20:27:31.635Z,26.13
2023-05-24T20:29:59.733Z,38.83
2023-05-24T20:32:27.867Z,28.30
2023-05-24T20:34:57.463Z,29.15
2023-05-24T20:37:25.613Z,33.38
2023-05-24T20:39:53.770Z,34.50
2023-05-24T20:42:21.969Z,24.30
2023-05-24T20:44:50.116Z,27.95
2023-05-24T20:47:19.201Z,37.60
2023-05-24T20:49:47.373Z,24.98
2023-05-24T20:52:17.013Z,26.65
2023-05-24T20:54:45.475Z,26.95
2023-05-24T20:57:13.964Z,26.27
2023-05-24T20:59:42.147Z,18.50
2023-05-24T21:02:10.282Z,30.70
2023-05-24T21:04:38.366Z,22.92
2023-05-24T21:07:07.920Z,27.65
2023-05-24T21:09:37.404Z,22.08
2023-05-24T21:12:06.663Z,24.73
2023-05-24T21:14:35.262Z,30.23
2023-05-24T21:17:03.437Z,27.90
2023-05-24T21:19:31.602Z,27.33
2023-05-24T21:21:59.750Z,25.05
2023-05-24T21:24:27.836Z,24.23
2023-05-24T21:26:57.300Z,28.83
2023-05-24T21:29:25.444Z,34.33
2023-05-24T21:31:53.561Z,21.25
2023-05-24T21:34:21.655Z,36.35
2023-05-24T21:36:49.748Z,30.17
2023-05-24T21:39:17.858Z,24.42
2023-05-24T21:41:45.952Z,27.27
2023-05-24T21:44:15.533Z,31.02
2023-05-24T21:46:43.662Z,26.95
2023-05-24T21:49:11.782Z,23.48
2023-05-24T21:51:39.931Z,29.20
2023-05-24T21:54:08.036Z,31.55
2023-05-24T21:56:36.121Z,27.67
2023-05-24T21:59:04.261Z,32.28
2023-05-24T22:01:33.753Z,30.85
2023-05-24T22:04:01.938Z,47.70
2023-05-24T22:06:30.076Z,28.60
2023-05-24T22:09:01.903Z,32.78
2023-05-24T22:11:30.092Z,29.80
2023-05-24T22:13:58.215Z,27.02
2023-05-24T22:16:26.324Z,29.85
2023-05-24T22:18:56.680Z,24.92
2023-05-24T22:21:26.223Z,23.30
2023-05-24T22:23:54.377Z,29.02
2023-05-24T22:26:22.735Z,34.90
2023-05-24T22:28:54.788Z,32.67
2023-05-24T22:31:24.681Z,33.10
2023-05-24T22:33:52.831Z,22.98
2023-05-24T22:36:22.349Z,30.58
2023-05-24T22:38:50.531Z,31.17
2023-05-24T22:41:18.735Z,28.70
2023-05-24T22:43:46.851Z,36.53
2023-05-24T22:46:15.024Z,28.85
2023-05-24T22:48:43.116Z,34.90
2023-05-24T22:51:12.517Z,31.60
2023-05-24T22:53:42.026Z,35.63
2023-05-24T22:56:10.659Z,32.22
2023-05-24T22:58:39.072Z,36.20
2023-05-24T23:01:07.376Z,33.88
2023-05-24T23:03:35.705Z,37.25
2023-05-24T23:06:05.665Z,30.52
2023-05-24T23:08:33.847Z,29.65
2023-05-24T23:11:10.636Z,24.58
2023-05-24T23:13:42.103Z,27.80
2023-05-24T23:16:10.273Z,29.20
2023-05-24T23:18:43.121Z,25.73
2023-05-24T23:21:11.247Z,28.42
2023-05-24T23:23:39.462Z,32.78
2023-05-24T23:26:08.998Z,26.70
2023-05-24T23:28:37.248Z,21.10
2023-05-24T23:31:05.432Z,28.77
2023-05-24T23:33:33.546Z,28.42
2023-05-24T23:36:01.669Z,30.50
2023-05-24T23:38:29.818Z,39.97
2023-05-24T23:40:57.940Z,39.95
2023-05-24T23:43:27.454Z,37.72
2023-05-24T23:45:55.703Z,36.05
2023-05-24T23:48:24.597Z,28.10
2023-05-24T23:50:54.592Z,35.45
2023-05-24T23:53:23.120Z,28.52
2023-05-24T23:55:51.197Z,33.78
2023-05-24T23:58:19.308Z,31.27
